createdAt,value
2022-10-23T00:03:37.719Z,19.21
2022-10-23T00:08:40.289Z,19.22
2022-10-23T00:13:43.010Z,19.27
2022-10-23T00:18:45.781Z,19.31
2022-10-23T00:23:48.391Z,19.33
2022-10-23T00:28:52.896Z,19.25
2022-10-23T00:33:55.370Z,19.10
2022-10-23T00:38:57.839Z,19.02
2022-10-23T00:44:00.280Z,18.95
2022-10-23T00:49:04.135Z,18.89
2022-10-23T00:54:24.449Z,18.81
2022-10-23T00:59:28.053Z,18.70
2022-10-23T01:04:31.849Z,18.69
2022-10-23T01:10:03.843Z,18.71
2022-10-23T01:15:41.641Z,18.69
2022-10-23T01:20:55.177Z,18.59
2022-10-23T01:26:22.655Z,18.68
2022-10-23T01:31:35.429Z,18.78
2022-10-23T01:36:41.689Z,18.80
2022-10-23T01:41:53.155Z,18.81
2022-10-23T01:46:57.635Z,18.74
2022-10-23T01:52:02.648Z,18.68
2022-10-23T01:57:10.143Z,18.79
2022-10-23T02:02:14.243Z,19.00
2022-10-23T02:07:16.839Z,19.18
2022-10-23T02:12:56.914Z,19.39
2022-10-23T02:18:44.940Z,19.49
2022-10-23T02:23:56.100Z,19.52
2022-10-23T02:29:07.261Z,19.57
2022-10-23T02:34:09.746Z,19.61
2022-10-23T02:39:12.190Z,19.61
2022-10-23T02:44:24.072Z,19.60
2022-10-23T02:49:45.448Z,19.62
2022-10-23T02:54:59.259Z,19.63
2022-10-23T03:00:12.975Z,19.56
2022-10-23T03:05:21.622Z,19.70
2022-10-23T03:10:24.101Z,19.67
2022-10-23T03:15:26.628Z,19.70
2022-10-23T03:20:29.292Z,19.64
2022-10-23T03:25:31.894Z,19.58
2022-10-23T03:30:34.837Z,19.70
2022-10-23T03:35:37.347Z,19.71
2022-10-23T03:40:40.200Z,19.64
2022-10-23T03:45:42.970Z,19.64
2022-10-23T03:50:45.411Z,19.62
2022-10-23T03:55:47.845Z,19.73
2022-10-23T04:00:50.325Z,19.85
2022-10-23T04:05:52.775Z,19.88
2022-10-23T04:10:55.590Z,19.87
2022-10-23T04:15:58.320Z,19.91
2022-10-23T04:21:00.781Z,19.91
2022-10-23T04:26:03.898Z,19.81
2022-10-23T04:31:06.721Z,19.65
2022-10-23T04:36:10.054Z,19.54
2022-10-23T04:41:12.516Z,19.52
2022-10-23T04:46:14.934Z,19.46
2022-10-23T04:51:17.599Z,19.35
2022-10-23T04:56:20.137Z,19.30
2022-10-23T05:01:22.687Z,19.32
2022-10-23T05:06:25.365Z,19.37
2022-10-23T05:11:27.760Z,19.33
2022-10-23T05:16:36.354Z,19.27
2022-10-23T05:21:40.397Z,19.32
2022-10-23T05:26:42.875Z,19.32
2022-10-23T05:31:46.255Z,19.37
2022-10-23T05:36:49.128Z,19.31
2022-10-23T05:41:52.285Z,19.21
2022-10-23T05:46:54.746Z,19.28
2022-10-23T05:51:57.253Z,19.35
2022-10-23T05:56:59.918Z,19.28
2022-10-23T06:02:02.519Z,19.26
2022-10-23T06:07:05.140Z,19.29
2022-10-23T06:12:07.544Z,19.27
2022-10-23T06:17:10.221Z,19.32
2022-10-23T06:22:13.215Z,19.35
2022-10-23T06:27:15.781Z,19.31
2022-10-23T06:32:18.592Z,19.28
2022-10-23T06:37:21.062Z,19.27
2022-10-23T06:42:23.555Z,19.16
2022-10-23T06:47:26.199Z,19.21
2022-10-23T06:52:47.882Z,19.46
2022-10-23T06:57:50.800Z,19.71
2022-10-23T07:02:53.560Z,19.88
2022-10-23T07:07:56.412Z,20.03
2022-10-23T07:13:00.785Z,20.13
2022-10-23T07:18:04.850Z,20.22
2022-10-23T07:23:07.523Z,19.89
2022-10-23T07:28:10.055Z,18.38
2022-10-23T07:33:13.772Z,19.11
2022-10-23T07:38:17.755Z,19.65
2022-10-23T07:43:21.109Z,19.76
2022-10-23T07:48:24.216Z,19.80
2022-10-23T07:53:27.087Z,19.88
2022-10-23T07:58:30.607Z,19.95
2022-10-23T08:03:34.362Z,19.79
2022-10-23T08:08:37.082Z,19.71
2022-10-23T08:13:41.341Z,19.69
2022-10-23T08:18:45.259Z,19.70
2022-10-23T08:23:47.879Z,19.70
2022-10-23T08:28:51.540Z,19.81
2022-10-23T08:33:55.253Z,19.95
2022-10-23T08:38:58.539Z,20.02
2022-10-23T08:44:10.114Z,20.17
2022-10-23T08:49:31.376Z,20.32
2022-10-23T08:54:43.378Z,20.32
2022-10-23T08:59:50.168Z,20.36
2022-10-23T09:04:55.404Z,20.39
2022-10-23T09:10:24.050Z,20.36
2022-10-23T09:15:28.161Z,20.34
2022-10-23T09:20:35.256Z,20.46
2022-10-23T09:25:40.177Z,20.39
2022-10-23T09:30:43.295Z,20.15
2022-10-23T09:36:15.869Z,20.20
2022-10-23T09:41:22.661Z,20.25
2022-10-23T09:46:25.609Z,20.18
2022-10-23T09:51:28.186Z,20.25
2022-10-23T09:56:34.990Z,20.38
2022-10-23T10:01:57.059Z,20.46
2022-10-23T10:07:03.337Z,20.58
2022-10-23T10:12:47.861Z,20.73
2022-10-23T10:18:35.686Z,20.87
2022-10-23T10:24:05.592Z,19.16
2022-10-23T10:29:19.705Z,18.64
2022-10-23T10:34:22.324Z,19.68
2022-10-23T10:40:02.393Z,19.90
2022-10-23T10:45:27.178Z,20.04
2022-10-23T10:50:39.263Z,20.17
2022-10-23T10:55:42.217Z,19.96
2022-10-23T11:00:49.590Z,19.79
2022-10-23T11:05:55.922Z,19.74
2022-10-23T11:11:06.797Z,19.79
2022-10-23T11:16:37.009Z,19.86
2022-10-23T11:21:54.944Z,19.89
2022-10-23T11:26:57.750Z,19.81
2022-10-23T11:32:21.878Z,19.73
2022-10-23T11:37:26.753Z,19.65
2022-10-23T11:42:49.569Z,19.68
2022-10-23T11:48:14.175Z,19.73
2022-10-23T11:53:35.333Z,19.75
2022-10-23T11:58:48.319Z,19.69
2022-10-23T12:03:56.800Z,19.82
2022-10-23T12:09:07.895Z,19.97
2022-10-23T12:14:49.365Z,20.09
2022-10-23T12:20:03.916Z,20.12
2022-10-23T12:25:31.342Z,20.12
2022-10-23T12:30:52.430Z,20.19
2022-10-23T12:36:12.871Z,20.25
2022-10-23T12:41:26.570Z,20.40
2022-10-23T12:46:51.391Z,20.39
2022-10-23T12:51:58.742Z,20.22
2022-10-23T12:57:04.628Z,20.20
2022-10-23T13:02:33.898Z,20.48
2022-10-23T13:07:44.030Z,20.61
2022-10-23T13:12:57.233Z,20.62
2022-10-23T13:18:02.717Z,20.80
2022-10-23T13:23:17.615Z,20.96
2022-10-23T13:28:22.379Z,21.02
2022-10-23T13:33:31.530Z,20.96
2022-10-23T13:38:39.663Z,21.04
2022-10-23T13:43:43.963Z,20.56
2022-10-23T13:48:49.032Z,18.85
2022-10-23T13:54:00.973Z,18.53
2022-10-23T13:59:03.600Z,19.50
2022-10-23T14:04:07.403Z,19.78
2022-10-23T14:09:15.664Z,20.04
2022-10-23T14:14:18.328Z,20.07
2022-10-23T14:19:20.913Z,20.17
2022-10-23T14:24:23.602Z,20.35
2022-10-23T14:29:26.353Z,20.40
2022-10-23T14:34:29.132Z,20.46
2022-10-23T14:39:32.097Z,20.48
2022-10-23T14:44:34.695Z,20.50
2022-10-23T14:49:40.064Z,20.38
2022-10-23T14:54:43.085Z,20.20
2022-10-23T14:59:45.711Z,20.13
2022-10-23T15:04:49.358Z,20.20
2022-10-23T15:09:52.540Z,20.26
2022-10-23T15:14:55.205Z,20.25
2022-10-23T15:19:58.204Z,20.22
2022-10-23T15:25:00.907Z,20.09
2022-10-23T15:30:04.592Z,20.02
2022-10-23T15:35:08.354Z,20.04
2022-10-23T15:40:11.573Z,20.00
2022-10-23T15:45:14.272Z,19.92
2022-10-23T15:50:17.521Z,19.81
2022-10-23T15:55:21.419Z,19.71
2022-10-23T16:00:24.108Z,19.64
2022-10-23T16:05:26.780Z,19.68
2022-10-23T16:10:29.430Z,19.73
2022-10-23T16:15:35.551Z,19.68
2022-10-23T16:20:40.179Z,19.55
2022-10-23T16:25:42.971Z,19.43
2022-10-23T16:30:46.301Z,19.33
2022-10-23T16:35:48.879Z,19.18
2022-10-23T16:40:53.234Z,19.00
2022-10-23T16:46:16.384Z,18.87
2022-10-23T16:51:21.810Z,18.82
2022-10-23T16:56:30.342Z,18.89
2022-10-23T17:01:33.717Z,19.02
2022-10-23T17:06:36.957Z,19.06
2022-10-23T17:11:41.084Z,19.01
2022-10-23T17:16:48.009Z,19.06
2022-10-23T17:21:51.641Z,19.07
2022-10-23T17:26:57.528Z,18.91
2022-10-23T17:32:00.395Z,18.74
2022-10-23T17:37:04.493Z,18.71
2022-10-23T17:42:07.791Z,18.66
2022-10-23T17:47:10.701Z,18.53
2022-10-23T17:52:15.264Z,18.28
2022-10-23T17:57:18.785Z,18.15
2022-10-23T18:02:21.706Z,18.12
2022-10-23T18:07:26.574Z,18.24
2022-10-23T18:12:29.806Z,18.35
2022-10-23T18:17:34.974Z,18.40
2022-10-23T18:22:38.981Z,18.42
2022-10-23T18:27:42.561Z,18.39
2022-10-23T18:32:45.324Z,18.37
2022-10-23T18:37:48.717Z,18.27
2022-10-23T18:42:51.198Z,18.13
2022-10-23T18:47:53.686Z,18.01
2022-10-23T18:52:57.156Z,17.90
2022-10-23T18:57:59.639Z,17.87
2022-10-23T19:03:02.066Z,17.79
2022-10-23T19:08:04.786Z,17.84
2022-10-23T19:13:07.627Z,17.96
2022-10-23T19:18:10.975Z,18.02
2022-10-23T19:23:15.292Z,18.09
2022-10-23T19:28:18.590Z,18.12
2022-10-23T19:33:21.122Z,18.01
2022-10-23T19:38:23.744Z,17.88
2022-10-23T19:43:26.832Z,17.78
2022-10-23T19:48:29.347Z,17.63
2022-10-23T19:53:31.968Z,17.54
2022-10-23T19:58:34.527Z,17.45
2022-10-23T20:03:38.079Z,17.45
2022-10-23T20:08:40.850Z,17.39
2022-10-23T20:13:44.935Z,17.43
2022-10-23T20:18:47.951Z,17.47
2022-10-23T20:23:50.805Z,17.47
2022-10-23T20:28:55.585Z,17.50
2022-10-23T20:33:58.446Z,17.51
2022-10-23T20:39:04.899Z,17.51
2022-10-23T20:44:10.631Z,17.62
2022-10-23T20:49:13.891Z,17.73
2022-10-23T20:54:16.311Z,17.80
2022-10-23T20:59:19.297Z,17.89
2022-10-23T21:04:26.304Z,18.03
2022-10-23T21:09:31.001Z,18.13
2022-10-23T21:14:36.046Z,18.33
2022-10-23T21:19:39.734Z,18.38
2022-10-23T21:24:42.245Z,18.42
2022-10-23T21:29:45.074Z,18.56
2022-10-23T21:34:47.629Z,18.69
2022-10-23T21:39:50.063Z,18.87
2022-10-23T21:44:52.523Z,19.00
2022-10-23T21:49:55.122Z,19.08
2022-10-23T21:54:57.717Z,19.13
2022-10-23T22:00:00.372Z,19.16
2022-10-23T22:05:02.958Z,19.07
2022-10-23T22:10:06.300Z,19.00
2022-10-23T22:15:09.457Z,18.94
2022-10-23T22:20:11.995Z,19.08
2022-10-23T22:25:14.486Z,18.98
2022-10-23T22:30:17.328Z,17.20
2022-10-23T22:35:19.785Z,16.27
2022-10-23T22:40:22.203Z,17.31
2022-10-23T22:45:24.793Z,17.71
2022-10-23T22:50:27.236Z,17.79
2022-10-23T22:55:29.661Z,17.88
2022-10-23T23:00:32.197Z,18.02
2022-10-23T23:05:34.801Z,18.16
2022-10-23T23:10:38.368Z,17.80
2022-10-23T23:15:41.186Z,15.99
2022-10-23T23:20:43.722Z,15.49
2022-10-23T23:25:49.275Z,16.57
2022-10-23T23:31:09.198Z,17.08
2022-10-23T23:36:16.003Z,17.31
2022-10-23T23:41:20.636Z,17.23
2022-10-23T23:46:23.662Z,17.27
2022-10-23T23:51:26.561Z,17.47
2022-10-23T23:56:29.112Z,17.59
